sensor_id;sensor_type;location;lat;lon;timestamp;temperature;humidity
17619;DHT22;8928;51.678;6.074;2022-12-07T00:01:15;3.10;99.90
17619;DHT22;8928;51.678;6.074;2022-12-07T00:04:03;3.20;99.90
17619;DHT22;8928;51.678;6.074;2022-12-07T00:06:52;3.30;99.90
17619;DHT22;8928;51.678;6.074;2022-12-07T00:09:39;3.30;99.90
17619;DHT22;8928;51.678;6.074;2022-12-07T00:12:27;3.50;99.90
17619;DHT22;8928;51.678;6.074;2022-12-07T00:15:15;3.50;99.90
17619;DHT22;8928;51.678;6.074;2022-12-07T00:18:03;3.50;99.90
17619;DHT22;8928;51.678;6.074;2022-12-07T00:20:50;3.60;99.90
17619;DHT22;8928;51.678;6.074;2022-12-07T00:23:37;3.50;99.90
17619;DHT22;8928;51.678;6.074;2022-12-07T00:26:26;3.40;99.90
17619;DHT22;8928;51.678;6.074;2022-12-07T00:29:16;3.30;99.90
17619;DHT22;8928;51.678;6.074;2022-12-07T00:32:04;3.30;99.90
17619;DHT22;8928;51.678;6.074;2022-12-07T00:34:51;3.20;99.90
17619;DHT22;8928;51.678;6.074;2022-12-07T00:37:38;3.20;99.90
17619;DHT22;8928;51.678;6.074;2022-12-07T00:40:25;3.20;99.90
17619;DHT22;8928;51.678;6.074;2022-12-07T00:43:12;3.20;99.90
17619;DHT22;8928;51.678;6.074;2022-12-07T00:45:59;3.30;99.90
17619;DHT22;8928;51.678;6.074;2022-12-07T00:48:48;3.30;99.90
17619;DHT22;8928;51.678;6.074;2022-12-07T00:51:36;3.20;99.90
17619;DHT22;8928;51.678;6.074;2022-12-07T00:54:23;3.20;99.90
17619;DHT22;8928;51.678;6.074;2022-12-07T00:57:10;3.20;99.90
17619;DHT22;8928;51.678;6.074;2022-12-07T00:59:57;3.20;99.90
17619;DHT22;8928;51.678;6.074;2022-12-07T01:02:46;3.20;99.90
17619;DHT22;8928;51.678;6.074;2022-12-07T01:05:34;3.10;99.90
17619;DHT22;8928;51.678;6.074;2022-12-07T01:08:22;3.10;99.90
17619;DHT22;8928;51.678;6.074;2022-12-07T01:11:12;3.10;99.90
17619;DHT22;8928;51.678;6.074;2022-12-07T01:14:00;3.00;99.90
17619;DHT22;8928;51.678;6.074;2022-12-07T01:16:47;2.90;99.90
17619;DHT22;8928;51.678;6.074;2022-12-07T01:19:34;2.90;99.90
17619;DHT22;8928;51.678;6.074;2022-12-07T01:22:23;2.90;99.90
17619;DHT22;8928;51.678;6.074;2022-12-07T01:25:11;2.80;99.90
17619;DHT22;8928;51.678;6.074;2022-12-07T01:27:58;2.80;99.90
17619;DHT22;8928;51.678;6.074;2022-12-07T01:30:55;2.70;99.90
17619;DHT22;8928;51.678;6.074;2022-12-07T01:33:43;2.60;99.90
17619;DHT22;8928;51.678;6.074;2022-12-07T01:36:31;2.50;99.90
17619;DHT22;8928;51.678;6.074;2022-12-07T01:39:20;2.50;99.90
17619;DHT22;8928;51.678;6.074;2022-12-07T01:42:09;2.50;99.90
17619;DHT22;8928;51.678;6.074;2022-12-07T01:48:32;2.40;99.90
17619;DHT22;8928;51.678;6.074;2022-12-07T01:51:20;2.40;99.90
17619;DHT22;8928;51.678;6.074;2022-12-07T01:54:07;2.30;99.90
17619;DHT22;8928;51.678;6.074;2022-12-07T01:56:56;2.40;99.90
17619;DHT22;8928;51.678;6.074;2022-12-07T01:59:45;2.30;99.90
17619;DHT22;8928;51.678;6.074;2022-12-07T02:02:36;2.30;99.90
17619;DHT22;8928;51.678;6.074;2022-12-07T02:05:25;2.30;99.90
17619;DHT22;8928;51.678;6.074;2022-12-07T02:08:13;2.30;99.90
17619;DHT22;8928;51.678;6.074;2022-12-07T02:11:02;2.20;99.90
17619;DHT22;8928;51.678;6.074;2022-12-07T02:13:50;2.10;99.90
17619;DHT22;8928;51.678;6.074;2022-12-07T02:16:46;2.00;99.90
17619;DHT22;8928;51.678;6.074;2022-12-07T02:20:14;2.10;99.90
17619;DHT22;8928;51.678;6.074;2022-12-07T02:23:21;2.00;99.90
17619;DHT22;8928;51.678;6.074;2022-12-07T02:26:55;2.00;99.90
17619;DHT22;8928;51.678;6.074;2022-12-07T02:29:54;2.20;99.90
17619;DHT22;8928;51.678;6.074;2022-12-07T02:32:48;2.20;99.90
17619;DHT22;8928;51.678;6.074;2022-12-07T02:35:40;2.10;99.90
17619;DHT22;8928;51.678;6.074;2022-12-07T02:38:32;2.10;99.90
17619;DHT22;8928;51.678;6.074;2022-12-07T02:41:25;2.10;99.90
17619;DHT22;8928;51.678;6.074;2022-12-07T02:44:16;2.00;99.90
17619;DHT22;8928;51.678;6.074;2022-12-07T02:47:09;2.00;99.90
17619;DHT22;8928;51.678;6.074;2022-12-07T02:49:57;1.90;99.90
17619;DHT22;8928;51.678;6.074;2022-12-07T02:52:44;1.90;99.90
17619;DHT22;8928;51.678;6.074;2022-12-07T02:55:35;1.90;99.90
17619;DHT22;8928;51.678;6.074;2022-12-07T02:58:33;1.80;99.90
17619;DHT22;8928;51.678;6.074;2022-12-07T03:01:30;1.90;99.90
17619;DHT22;8928;51.678;6.074;2022-12-07T03:04:27;1.90;99.90
17619;DHT22;8928;51.678;6.074;2022-12-07T03:07:27;1.80;99.90
17619;DHT22;8928;51.678;6.074;2022-12-07T03:10:22;1.90;99.90
17619;DHT22;8928;51.678;6.074;2022-12-07T03:13:18;1.80;99.90
17619;DHT22;8928;51.678;6.074;2022-12-07T03:16:11;1.90;99.90
17619;DHT22;8928;51.678;6.074;2022-12-07T03:19:04;1.80;99.90
17619;DHT22;8928;51.678;6.074;2022-12-07T03:21:57;1.80;99.90
17619;DHT22;8928;51.678;6.074;2022-12-07T03:24:48;1.70;99.90
17619;DHT22;8928;51.678;6.074;2022-12-07T03:27:41;1.60;99.90
17619;DHT22;8928;51.678;6.074;2022-12-07T03:30:33;1.70;99.90
17619;DHT22;8928;51.678;6.074;2022-12-07T03:33:24;1.70;99.90
17619;DHT22;8928;51.678;6.074;2022-12-07T03:36:17;1.60;99.90
17619;DHT22;8928;51.678;6.074;2022-12-07T03:39:14;1.60;99.90
17619;DHT22;8928;51.678;6.074;2022-12-07T03:42:04;1.50;99.90
17619;DHT22;8928;51.678;6.074;2022-12-07T03:44:52;1.50;99.90
17619;DHT22;8928;51.678;6.074;2022-12-07T03:47:45;1.50;99.90
17619;DHT22;8928;51.678;6.074;2022-12-07T03:50:40;1.50;99.90
17619;DHT22;8928;51.678;6.074;2022-12-07T03:53:33;1.50;99.90
17619;DHT22;8928;51.678;6.074;2022-12-07T03:56:22;1.60;99.90
17619;DHT22;8928;51.678;6.074;2022-12-07T03:59:11;1.60;99.90
17619;DHT22;8928;51.678;6.074;2022-12-07T04:02:03;1.60;99.90
17619;DHT22;8928;51.678;6.074;2022-12-07T04:04:51;1.50;99.90
17619;DHT22;8928;51.678;6.074;2022-12-07T04:07:38;1.50;99.90
17619;DHT22;8928;51.678;6.074;2022-12-07T04:10:25;1.50;99.90
17619;DHT22;8928;51.678;6.074;2022-12-07T04:13:13;1.40;99.90
17619;DHT22;8928;51.678;6.074;2022-12-07T04:16:00;1.40;99.90
17619;DHT22;8928;51.678;6.074;2022-12-07T04:18:47;1.40;99.90
17619;DHT22;8928;51.678;6.074;2022-12-07T04:21:34;1.50;99.90
17619;DHT22;8928;51.678;6.074;2022-12-07T04:24:22;1.50;99.90
17619;DHT22;8928;51.678;6.074;2022-12-07T04:27:09;1.70;99.90
17619;DHT22;8928;51.678;6.074;2022-12-07T04:29:58;1.80;99.90
17619;DHT22;8928;51.678;6.074;2022-12-07T04:32:45;2.00;99.90
17619;DHT22;8928;51.678;6.074;2022-12-07T04:35:32;2.00;99.90
17619;DHT22;8928;51.678;6.074;2022-12-07T04:38:19;2.00;99.90
17619;DHT22;8928;51.678;6.074;2022-12-07T04:41:06;2.10;99.90
17619;DHT22;8928;51.678;6.074;2022-12-07T04:43:54;2.20;99.90
17619;DHT22;8928;51.678;6.074;2022-12-07T04:46:46;2.20;99.90
17619;DHT22;8928;51.678;6.074;2022-12-07T04:49:33;2.30;99.90
17619;DHT22;8928;51.678;6.074;2022-12-07T04:52:20;2.30;99.90
17619;DHT22;8928;51.678;6.074;2022-12-07T04:55:08;2.30;99.90
17619;DHT22;8928;51.678;6.074;2022-12-07T04:57:55;2.30;99.90
17619;DHT22;8928;51.678;6.074;2022-12-07T05:00:42;2.40;99.90
17619;DHT22;8928;51.678;6.074;2022-12-07T05:03:30;2.40;99.90
17619;DHT22;8928;51.678;6.074;2022-12-07T05:06:17;2.40;99.90
17619;DHT22;8928;51.678;6.074;2022-12-07T05:09:05;2.40;99.90
17619;DHT22;8928;51.678;6.074;2022-12-07T05:11:52;2.40;99.90
17619;DHT22;8928;51.678;6.074;2022-12-07T05:14:39;2.30;99.90
17619;DHT22;8928;51.678;6.074;2022-12-07T05:17:26;2.30;99.90
17619;DHT22;8928;51.678;6.074;2022-12-07T05:20:14;2.30;99.90
17619;DHT22;8928;51.678;6.074;2022-12-07T05:23:01;2.20;99.90
17619;DHT22;8928;51.678;6.074;2022-12-07T05:25:49;2.20;99.90
17619;DHT22;8928;51.678;6.074;2022-12-07T05:28:36;2.30;99.90
17619;DHT22;8928;51.678;6.074;2022-12-07T05:31:23;2.40;99.90
17619;DHT22;8928;51.678;6.074;2022-12-07T05:34:11;2.40;99.90
17619;DHT22;8928;51.678;6.074;2022-12-07T05:37:00;2.40;99.90
17619;DHT22;8928;51.678;6.074;2022-12-07T05:39:47;2.50;99.90
17619;DHT22;8928;51.678;6.074;2022-12-07T05:42:34;2.60;99.90
17619;DHT22;8928;51.678;6.074;2022-12-07T05:45:21;2.50;99.90
17619;DHT22;8928;51.678;6.074;2022-12-07T05:48:08;2.50;99.90
17619;DHT22;8928;51.678;6.074;2022-12-07T05:50:55;2.50;99.90
17619;DHT22;8928;51.678;6.074;2022-12-07T05:53:43;2.60;99.90
17619;DHT22;8928;51.678;6.074;2022-12-07T05:56:30;2.70;99.90
17619;DHT22;8928;51.678;6.074;2022-12-07T05:59:17;2.80;99.90
17619;DHT22;8928;51.678;6.074;2022-12-07T06:02:12;2.80;99.90
17619;DHT22;8928;51.678;6.074;2022-12-07T06:05:00;2.70;99.90
17619;DHT22;8928;51.678;6.074;2022-12-07T06:07:47;2.60;99.90
17619;DHT22;8928;51.678;6.074;2022-12-07T06:10:35;2.60;99.90
17619;DHT22;8928;51.678;6.074;2022-12-07T06:13:22;2.50;99.90
17619;DHT22;8928;51.678;6.074;2022-12-07T06:16:08;2.50;99.90
17619;DHT22;8928;51.678;6.074;2022-12-07T06:18:55;2.40;99.90
17619;DHT22;8928;51.678;6.074;2022-12-07T06:21:42;2.50;99.90
17619;DHT22;8928;51.678;6.074;2022-12-07T06:24:29;2.40;99.90
17619;DHT22;8928;51.678;6.074;2022-12-07T06:27:18;2.40;99.90
17619;DHT22;8928;51.678;6.074;2022-12-07T06:30:06;2.30;99.90
17619;DHT22;8928;51.678;6.074;2022-12-07T06:32:54;2.40;99.90
17619;DHT22;8928;51.678;6.074;2022-12-07T06:35:41;2.30;99.90
17619;DHT22;8928;51.678;6.074;2022-12-07T06:38:28;2.20;99.90
17619;DHT22;8928;51.678;6.074;2022-12-07T06:41:15;2.10;99.90
17619;DHT22;8928;51.678;6.074;2022-12-07T06:44:04;2.10;99.90
17619;DHT22;8928;51.678;6.074;2022-12-07T06:46:52;2.00;99.90
17619;DHT22;8928;51.678;6.074;2022-12-07T06:49:39;1.90;99.90
17619;DHT22;8928;51.678;6.074;2022-12-07T06:52:26;1.80;99.90
17619;DHT22;8928;51.678;6.074;2022-12-07T06:55:13;1.60;99.90
17619;DHT22;8928;51.678;6.074;2022-12-07T06:58:00;1.50;99.90
17619;DHT22;8928;51.678;6.074;2022-12-07T07:00:49;1.30;99.90
17619;DHT22;8928;51.678;6.074;2022-12-07T07:03:36;1.20;99.90
17619;DHT22;8928;51.678;6.074;2022-12-07T07:06:23;1.20;99.90
17619;DHT22;8928;51.678;6.074;2022-12-07T07:09:10;1.10;99.90
17619;DHT22;8928;51.678;6.074;2022-12-07T07:11:57;1.10;99.90
17619;DHT22;8928;51.678;6.074;2022-12-07T07:14:44;1.00;99.90
17619;DHT22;8928;51.678;6.074;2022-12-07T07:17:33;1.10;99.90
17619;DHT22;8928;51.678;6.074;2022-12-07T07:20:20;1.10;99.90
17619;DHT22;8928;51.678;6.074;2022-12-07T07:23:07;1.20;99.90
17619;DHT22;8928;51.678;6.074;2022-12-07T07:25:55;1.20;99.90
17619;DHT22;8928;51.678;6.074;2022-12-07T07:28:42;1.30;99.90
17619;DHT22;8928;51.678;6.074;2022-12-07T07:31:29;1.50;99.90
17619;DHT22;8928;51.678;6.074;2022-12-07T07:34:17;1.60;99.90
17619;DHT22;8928;51.678;6.074;2022-12-07T07:37:04;1.70;99.90
17619;DHT22;8928;51.678;6.074;2022-12-07T07:39:51;1.80;99.90
17619;DHT22;8928;51.678;6.074;2022-12-07T07:42:38;1.80;99.90
17619;DHT22;8928;51.678;6.074;2022-12-07T07:45:27;1.90;99.90
17619;DHT22;8928;51.678;6.074;2022-12-07T07:48:14;1.90;99.90
17619;DHT22;8928;51.678;6.074;2022-12-07T07:51:05;1.90;99.90
17619;DHT22;8928;51.678;6.074;2022-12-07T07:53:52;1.90;99.90
17619;DHT22;8928;51.678;6.074;2022-12-07T07:56:39;2.00;99.90
17619;DHT22;8928;51.678;6.074;2022-12-07T07:59:26;2.00;99.90
17619;DHT22;8928;51.678;6.074;2022-12-07T08:02:15;2.10;99.90
17619;DHT22;8928;51.678;6.074;2022-12-07T08:05:02;2.10;99.90
17619;DHT22;8928;51.678;6.074;2022-12-07T08:07:51;2.10;99.90
17619;DHT22;8928;51.678;6.074;2022-12-07T08:10:38;2.20;99.90
17619;DHT22;8928;51.678;6.074;2022-12-07T08:13:25;2.10;99.90
17619;DHT22;8928;51.678;6.074;2022-12-07T08:16:12;2.00;99.90
17619;DHT22;8928;51.678;6.074;2022-12-07T08:19:00;1.90;99.90
17619;DHT22;8928;51.678;6.074;2022-12-07T08:21:47;1.90;99.90
17619;DHT22;8928;51.678;6.074;2022-12-07T08:24:36;1.80;99.90
17619;DHT22;8928;51.678;6.074;2022-12-07T08:27:23;1.80;99.90
17619;DHT22;8928;51.678;6.074;2022-12-07T08:30:12;1.70;99.90
17619;DHT22;8928;51.678;6.074;2022-12-07T08:32:59;1.80;99.90
17619;DHT22;8928;51.678;6.074;2022-12-07T08:35:46;1.80;99.90
17619;DHT22;8928;51.678;6.074;2022-12-07T08:38:34;1.80;99.90
17619;DHT22;8928;51.678;6.074;2022-12-07T08:41:22;1.90;99.90
17619;DHT22;8928;51.678;6.074;2022-12-07T08:44:09;1.90;99.90
17619;DHT22;8928;51.678;6.074;2022-12-07T08:46:58;1.90;99.90
17619;DHT22;8928;51.678;6.074;2022-12-07T08:49:49;1.90;99.90
17619;DHT22;8928;51.678;6.074;2022-12-07T08:52:38;1.90;99.90
17619;DHT22;8928;51.678;6.074;2022-12-07T08:55:27;1.90;99.90
17619;DHT22;8928;51.678;6.074;2022-12-07T08:58:16;2.00;99.90
17619;DHT22;8928;51.678;6.074;2022-12-07T09:01:04;2.20;99.90
17619;DHT22;8928;51.678;6.074;2022-12-07T09:03:51;2.40;99.90
17619;DHT22;8928;51.678;6.074;2022-12-07T09:06:38;2.50;99.90
17619;DHT22;8928;51.678;6.074;2022-12-07T09:09:25;2.60;99.90
17619;DHT22;8928;51.678;6.074;2022-12-07T09:12:12;2.60;99.90
17619;DHT22;8928;51.678;6.074;2022-12-07T09:15:01;2.70;99.90
17619;DHT22;8928;51.678;6.074;2022-12-07T09:17:48;2.70;99.90
17619;DHT22;8928;51.678;6.074;2022-12-07T09:20:35;2.80;99.90
17619;DHT22;8928;51.678;6.074;2022-12-07T09:23:22;2.80;99.90
17619;DHT22;8928;51.678;6.074;2022-12-07T09:26:09;3.00;99.90
17619;DHT22;8928;51.678;6.074;2022-12-07T09:28:57;3.00;99.90
17619;DHT22;8928;51.678;6.074;2022-12-07T09:31:45;3.10;99.90
17619;DHT22;8928;51.678;6.074;2022-12-07T09:34:32;3.20;99.90
17619;DHT22;8928;51.678;6.074;2022-12-07T09:37:19;3.30;99.90
17619;DHT22;8928;51.678;6.074;2022-12-07T09:40:07;3.40;99.90
17619;DHT22;8928;51.678;6.074;2022-12-07T09:42:55;3.70;99.90
17619;DHT22;8928;51.678;6.074;2022-12-07T09:45:43;3.90;99.90
17619;DHT22;8928;51.678;6.074;2022-12-07T09:48:34;4.10;99.90
17619;DHT22;8928;51.678;6.074;2022-12-07T09:51:24;4.20;99.90
17619;DHT22;8928;51.678;6.074;2022-12-07T09:54:13;4.30;99.90
17619;DHT22;8928;51.678;6.074;2022-12-07T09:57:00;4.50;99.90
17619;DHT22;8928;51.678;6.074;2022-12-07T09:59:47;4.60;99.90
17619;DHT22;8928;51.678;6.074;2022-12-07T10:02:36;4.70;99.90
17619;DHT22;8928;51.678;6.074;2022-12-07T10:05:28;4.70;99.90
17619;DHT22;8928;51.678;6.074;2022-12-07T10:08:16;4.70;99.90
17619;DHT22;8928;51.678;6.074;2022-12-07T10:11:04;4.60;99.90
17619;DHT22;8928;51.678;6.074;2022-12-07T10:14:10;4.60;99.90
17619;DHT22;8928;51.678;6.074;2022-12-07T10:16:58;4.80;99.90
17619;DHT22;8928;51.678;6.074;2022-12-07T10:19:46;5.00;99.90
17619;DHT22;8928;51.678;6.074;2022-12-07T10:22:34;5.20;99.90
17619;DHT22;8928;51.678;6.074;2022-12-07T10:25:24;5.30;99.90
17619;DHT22;8928;51.678;6.074;2022-12-07T10:28:14;5.30;99.90
17619;DHT22;8928;51.678;6.074;2022-12-07T10:31:14;5.20;99.90
17619;DHT22;8928;51.678;6.074;2022-12-07T10:34:02;5.10;99.90
17619;DHT22;8928;51.678;6.074;2022-12-07T10:36:49;5.40;99.90
17619;DHT22;8928;51.678;6.074;2022-12-07T10:39:43;5.70;99.90
17619;DHT22;8928;51.678;6.074;2022-12-07T10:42:31;5.70;99.90
17619;DHT22;8928;51.678;6.074;2022-12-07T10:45:18;5.70;99.90
17619;DHT22;8928;51.678;6.074;2022-12-07T10:48:10;5.70;99.90
17619;DHT22;8928;51.678;6.074;2022-12-07T10:51:04;5.80;99.90
17619;DHT22;8928;51.678;6.074;2022-12-07T10:54:00;5.60;99.90
17619;DHT22;8928;51.678;6.074;2022-12-07T10:57:13;5.70;99.90
17619;DHT22;8928;51.678;6.074;2022-12-07T11:00:18;5.80;99.90
17619;DHT22;8928;51.678;6.074;2022-12-07T11:03:26;6.00;99.90
17619;DHT22;8928;51.678;6.074;2022-12-07T11:06:24;6.00;99.90
17619;DHT22;8928;51.678;6.074;2022-12-07T11:12:42;6.20;99.90
17619;DHT22;8928;51.678;6.074;2022-12-07T11:15:57;6.10;99.90
17619;DHT22;8928;51.678;6.074;2022-12-07T11:18:53;6.10;99.90
17619;DHT22;8928;51.678;6.074;2022-12-07T11:21:50;6.10;99.90
17619;DHT22;8928;51.678;6.074;2022-12-07T11:24:46;6.10;99.90
17619;DHT22;8928;51.678;6.074;2022-12-07T11:27:39;6.20;99.90
17619;DHT22;8928;51.678;6.074;2022-12-07T11:30:32;6.30;99.90
17619;DHT22;8928;51.678;6.074;2022-12-07T11:33:27;6.40;99.90
17619;DHT22;8928;51.678;6.074;2022-12-07T11:36:31;6.40;99.90
17619;DHT22;8928;51.678;6.074;2022-12-07T11:39:26;6.40;99.90
17619;DHT22;8928;51.678;6.074;2022-12-07T11:42:16;6.40;99.90
17619;DHT22;8928;51.678;6.074;2022-12-07T11:45:15;6.40;99.90
17619;DHT22;8928;51.678;6.074;2022-12-07T11:48:04;6.30;99.90
17619;DHT22;8928;51.678;6.074;2022-12-07T11:50:56;6.40;99.90
17619;DHT22;8928;51.678;6.074;2022-12-07T11:53:48;6.40;99.90
17619;DHT22;8928;51.678;6.074;2022-12-07T11:56:36;6.40;99.90
17619;DHT22;8928;51.678;6.074;2022-12-07T11:59:28;6.30;99.90
17619;DHT22;8928;51.678;6.074;2022-12-07T12:02:21;6.30;99.90
17619;DHT22;8928;51.678;6.074;2022-12-07T12:05:15;6.20;99.90
17619;DHT22;8928;51.678;6.074;2022-12-07T12:08:13;6.20;99.90
17619;DHT22;8928;51.678;6.074;2022-12-07T12:11:08;6.30;99.90
17619;DHT22;8928;51.678;6.074;2022-12-07T12:14:19;6.30;99.90
17619;DHT22;8928;51.678;6.074;2022-12-07T12:17:28;6.30;99.90
17619;DHT22;8928;51.678;6.074;2022-12-07T12:20:21;6.40;99.90
17619;DHT22;8928;51.678;6.074;2022-12-07T12:23:12;6.40;99.90
17619;DHT22;8928;51.678;6.074;2022-12-07T12:26:02;6.40;99.90
17619;DHT22;8928;51.678;6.074;2022-12-07T12:28:53;6.50;99.90
17619;DHT22;8928;51.678;6.074;2022-12-07T12:31:41;6.40;99.90
17619;DHT22;8928;51.678;6.074;2022-12-07T12:34:39;6.40;99.90
17619;DHT22;8928;51.678;6.074;2022-12-07T12:37:41;6.30;99.90
17619;DHT22;8928;51.678;6.074;2022-12-07T12:40:39;6.30;99.90
17619;DHT22;8928;51.678;6.074;2022-12-07T12:43:48;6.30;99.90
17619;DHT22;8928;51.678;6.074;2022-12-07T12:46:47;6.30;99.90
17619;DHT22;8928;51.678;6.074;2022-12-07T12:49:39;6.40;99.90
17619;DHT22;8928;51.678;6.074;2022-12-07T12:53:11;6.50;99.90
17619;DHT22;8928;51.678;6.074;2022-12-07T12:56:27;6.50;99.90
17619;DHT22;8928;51.678;6.074;2022-12-07T12:59:22;6.50;99.90
17619;DHT22;8928;51.678;6.074;2022-12-07T13:02:20;6.50;99.90
17619;DHT22;8928;51.678;6.074;2022-12-07T13:05:18;6.50;99.90
17619;DHT22;8928;51.678;6.074;2022-12-07T13:08:14;6.30;99.90
17619;DHT22;8928;51.678;6.074;2022-12-07T13:11:17;6.30;99.90
17619;DHT22;8928;51.678;6.074;2022-12-07T13:14:39;6.40;99.90
17619;DHT22;8928;51.678;6.074;2022-12-07T13:17:57;6.50;99.90
17619;DHT22;8928;51.678;6.074;2022-12-07T13:20:50;6.50;99.90
17619;DHT22;8928;51.678;6.074;2022-12-07T13:23:39;6.40;99.90
17619;DHT22;8928;51.678;6.074;2022-12-07T13:26:42;6.30;99.90
17619;DHT22;8928;51.678;6.074;2022-12-07T13:29:37;6.20;99.90
17619;DHT22;8928;51.678;6.074;2022-12-07T13:32:26;6.00;99.90
17619;DHT22;8928;51.678;6.074;2022-12-07T13:35:28;5.80;99.90
17619;DHT22;8928;51.678;6.074;2022-12-07T13:38:23;5.70;99.90
17619;DHT22;8928;51.678;6.074;2022-12-07T13:41:13;5.80;99.90
17619;DHT22;8928;51.678;6.074;2022-12-07T13:44:03;5.80;99.90
17619;DHT22;8928;51.678;6.074;2022-12-07T13:46:59;5.80;99.90
17619;DHT22;8928;51.678;6.074;2022-12-07T13:49:50;5.90;99.90
17619;DHT22;8928;51.678;6.074;2022-12-07T13:52:43;5.90;99.90
17619;DHT22;8928;51.678;6.074;2022-12-07T13:55:32;5.80;99.90
17619;DHT22;8928;51.678;6.074;2022-12-07T13:58:19;5.80;99.90
17619;DHT22;8928;51.678;6.074;2022-12-07T14:01:07;5.80;99.90
17619;DHT22;8928;51.678;6.074;2022-12-07T14:03:55;5.70;99.90
17619;DHT22;8928;51.678;6.074;2022-12-07T14:06:48;5.70;99.90
17619;DHT22;8928;51.678;6.074;2022-12-07T14:09:36;5.80;99.90
17619;DHT22;8928;51.678;6.074;2022-12-07T14:12:25;5.80;99.90
17619;DHT22;8928;51.678;6.074;2022-12-07T14:15:20;5.80;99.90
17619;DHT22;8928;51.678;6.074;2022-12-07T14:18:25;5.70;99.90
17619;DHT22;8928;51.678;6.074;2022-12-07T14:21:15;5.60;99.90
17619;DHT22;8928;51.678;6.074;2022-12-07T14:24:14;5.50;99.90
17619;DHT22;8928;51.678;6.074;2022-12-07T14:27:01;5.50;99.90
17619;DHT22;8928;51.678;6.074;2022-12-07T14:29:49;5.40;99.90
17619;DHT22;8928;51.678;6.074;2022-12-07T14:32:37;5.30;99.90
17619;DHT22;8928;51.678;6.074;2022-12-07T14:35:26;5.10;99.90
17619;DHT22;8928;51.678;6.074;2022-12-07T14:38:13;5.10;99.90
17619;DHT22;8928;51.678;6.074;2022-12-07T14:41:00;5.00;99.90
17619;DHT22;8928;51.678;6.074;2022-12-07T14:44:01;4.90;99.90
17619;DHT22;8928;51.678;6.074;2022-12-07T14:46:51;4.90;99.90
17619;DHT22;8928;51.678;6.074;2022-12-07T14:49:38;4.70;99.90
17619;DHT22;8928;51.678;6.074;2022-12-07T14:52:28;4.70;99.90
17619;DHT22;8928;51.678;6.074;2022-12-07T14:55:20;4.70;99.90
17619;DHT22;8928;51.678;6.074;2022-12-07T14:58:12;4.60;99.90
17619;DHT22;8928;51.678;6.074;2022-12-07T15:01:00;4.60;99.90
17619;DHT22;8928;51.678;6.074;2022-12-07T15:03:48;4.60;99.90
17619;DHT22;8928;51.678;6.074;2022-12-07T15:06:35;4.60;99.90
17619;DHT22;8928;51.678;6.074;2022-12-07T15:09:23;4.60;99.90
17619;DHT22;8928;51.678;6.074;2022-12-07T15:12:10;4.60;99.90
17619;DHT22;8928;51.678;6.074;2022-12-07T15:14:57;4.60;99.90
17619;DHT22;8928;51.678;6.074;2022-12-07T15:17:44;4.60;99.90
17619;DHT22;8928;51.678;6.074;2022-12-07T15:20:33;4.50;99.90
17619;DHT22;8928;51.678;6.074;2022-12-07T15:23:20;4.60;99.90
17619;DHT22;8928;51.678;6.074;2022-12-07T15:26:07;4.60;99.90
17619;DHT22;8928;51.678;6.074;2022-12-07T15:28:54;4.60;99.90
17619;DHT22;8928;51.678;6.074;2022-12-07T15:31:41;4.60;99.90
17619;DHT22;8928;51.678;6.074;2022-12-07T15:34:28;4.50;99.90
17619;DHT22;8928;51.678;6.074;2022-12-07T15:37:18;4.50;99.90
17619;DHT22;8928;51.678;6.074;2022-12-07T15:40:07;4.40;99.90
17619;DHT22;8928;51.678;6.074;2022-12-07T15:42:54;4.30;99.90
17619;DHT22;8928;51.678;6.074;2022-12-07T15:45:41;4.20;99.90
17619;DHT22;8928;51.678;6.074;2022-12-07T15:48:27;4.10;99.90
17619;DHT22;8928;51.678;6.074;2022-12-07T15:51:14;4.00;99.90
17619;DHT22;8928;51.678;6.074;2022-12-07T15:54:03;3.90;99.90
17619;DHT22;8928;51.678;6.074;2022-12-07T15:56:50;3.70;99.90
17619;DHT22;8928;51.678;6.074;2022-12-07T15:59:37;3.70;99.90
17619;DHT22;8928;51.678;6.074;2022-12-07T16:02:25;3.70;99.90
17619;DHT22;8928;51.678;6.074;2022-12-07T16:05:12;3.60;99.90
17619;DHT22;8928;51.678;6.074;2022-12-07T16:07:59;3.50;99.90
17619;DHT22;8928;51.678;6.074;2022-12-07T16:10:48;3.50;99.90
17619;DHT22;8928;51.678;6.074;2022-12-07T16:13:35;3.50;99.90
17619;DHT22;8928;51.678;6.074;2022-12-07T16:16:22;3.50;99.90
17619;DHT22;8928;51.678;6.074;2022-12-07T16:19:10;3.50;99.90
17619;DHT22;8928;51.678;6.074;2022-12-07T16:21:57;3.50;99.90
17619;DHT22;8928;51.678;6.074;2022-12-07T16:24:44;3.50;99.90
17619;DHT22;8928;51.678;6.074;2022-12-07T16:27:34;3.50;99.90
17619;DHT22;8928;51.678;6.074;2022-12-07T16:30:21;3.40;99.90
17619;DHT22;8928;51.678;6.074;2022-12-07T16:33:08;3.40;99.90
17619;DHT22;8928;51.678;6.074;2022-12-07T16:35:55;3.30;99.90
17619;DHT22;8928;51.678;6.074;2022-12-07T16:38:42;3.30;99.90
17619;DHT22;8928;51.678;6.074;2022-12-07T16:41:30;3.20;99.90
17619;DHT22;8928;51.678;6.074;2022-12-07T16:44:18;3.20;99.90
17619;DHT22;8928;51.678;6.074;2022-12-07T16:47:05;3.20;99.90
17619;DHT22;8928;51.678;6.074;2022-12-07T16:49:52;3.10;99.90
17619;DHT22;8928;51.678;6.074;2022-12-07T16:52:39;3.10;99.90
17619;DHT22;8928;51.678;6.074;2022-12-07T16:55:26;3.10;99.90
17619;DHT22;8928;51.678;6.074;2022-12-07T16:58:14;3.00;99.90
17619;DHT22;8928;51.678;6.074;2022-12-07T17:01:10;3.00;99.90
17619;DHT22;8928;51.678;6.074;2022-12-07T17:03:58;3.00;99.90
17619;DHT22;8928;51.678;6.074;2022-12-07T17:06:45;3.10;99.90
17619;DHT22;8928;51.678;6.074;2022-12-07T17:09:32;3.10;99.90
17619;DHT22;8928;51.678;6.074;2022-12-07T17:12:20;3.30;99.90
17619;DHT22;8928;51.678;6.074;2022-12-07T17:15:08;3.30;99.90
17619;DHT22;8928;51.678;6.074;2022-12-07T17:18:07;3.30;99.90
17619;DHT22;8928;51.678;6.074;2022-12-07T17:20:55;3.40;99.90
17619;DHT22;8928;51.678;6.074;2022-12-07T17:23:42;3.40;99.90
17619;DHT22;8928;51.678;6.074;2022-12-07T17:26:29;3.40;99.90
17619;DHT22;8928;51.678;6.074;2022-12-07T17:29:17;3.50;99.90
17619;DHT22;8928;51.678;6.074;2022-12-07T17:32:05;3.40;99.90
17619;DHT22;8928;51.678;6.074;2022-12-07T17:34:53;3.40;99.90
17619;DHT22;8928;51.678;6.074;2022-12-07T17:37:40;3.40;99.90
17619;DHT22;8928;51.678;6.074;2022-12-07T17:40:27;3.40;99.90
17619;DHT22;8928;51.678;6.074;2022-12-07T17:43:14;3.40;99.90
17619;DHT22;8928;51.678;6.074;2022-12-07T17:46:06;3.40;99.90
17619;DHT22;8928;51.678;6.074;2022-12-07T17:48:53;3.40;99.90
17619;DHT22;8928;51.678;6.074;2022-12-07T17:51:42;3.40;99.90
17619;DHT22;8928;51.678;6.074;2022-12-07T17:54:46;3.30;99.90
17619;DHT22;8928;51.678;6.074;2022-12-07T17:57:33;3.30;99.90
17619;DHT22;8928;51.678;6.074;2022-12-07T18:00:21;3.30;99.90
17619;DHT22;8928;51.678;6.074;2022-12-07T18:03:08;3.30;99.90
17619;DHT22;8928;51.678;6.074;2022-12-07T18:05:55;3.30;99.90
17619;DHT22;8928;51.678;6.074;2022-12-07T18:08:44;3.30;99.90
17619;DHT22;8928;51.678;6.074;2022-12-07T18:11:31;3.40;99.90
17619;DHT22;8928;51.678;6.074;2022-12-07T18:14:20;3.40;99.90
17619;DHT22;8928;51.678;6.074;2022-12-07T18:17:07;3.40;99.90
17619;DHT22;8928;51.678;6.074;2022-12-07T18:19:54;3.40;99.90
17619;DHT22;8928;51.678;6.074;2022-12-07T18:22:41;3.50;99.90
17619;DHT22;8928;51.678;6.074;2022-12-07T18:25:29;3.50;99.90
17619;DHT22;8928;51.678;6.074;2022-12-07T18:28:16;3.60;99.90
17619;DHT22;8928;51.678;6.074;2022-12-07T18:31:04;3.60;99.90
17619;DHT22;8928;51.678;6.074;2022-12-07T18:33:51;3.60;99.90
17619;DHT22;8928;51.678;6.074;2022-12-07T18:36:42;3.60;99.90
17619;DHT22;8928;51.678;6.074;2022-12-07T18:39:30;3.60;99.90